createdAt,value
2019-04-21T00:00:11.585Z,17.299999
2019-04-21T00:00:26.348Z,15.6
2019-04-21T00:00:52.199Z,15.8
2019-04-21T00:01:07.079Z,16.1
2019-04-21T00:01:23.011Z,16.1
2019-04-21T00:01:45.041Z,16.299999
2019-04-21T00:02:00.014Z,16.1
2019-04-21T00:02:22.734Z,17
2019-04-21T00:02:39.649Z,17.700001
2019-04-21T00:02:59.503Z,16.700001
2019-04-21T00:03:21.331Z,16.700001
2019-04-21T00:03:40.615Z,17.200001
2019-04-21T00:03:57.061Z,16.9
2019-04-21T00:04:24.426Z,17.6
2019-04-21T00:04:42.578Z,16.799999
2019-04-21T00:05:02.608Z,17
2019-04-21T00:05:42.928Z,18.4
2019-04-21T00:05:42.929Z,17.4
2019-04-21T00:06:08.649Z,18.1
2019-04-21T00:06:21.816Z,18.700001
2019-04-21T00:06:47.865Z,16.700001
2019-04-21T00:07:02.778Z,16.6
2019-04-21T00:07:19.131Z,16.9
2019-04-21T00:07:41.846Z,17.9
2019-04-21T00:08:07.307Z,16.9
2019-04-21T00:08:24.534Z,17.700001
2019-04-21T00:08:55.869Z,17.6
2019-04-21T00:09:02.152Z,17
2019-04-21T00:09:17.730Z,16.9
2019-04-21T00:09:39.459Z,17.5
2019-04-21T00:09:58.017Z,18.6
2019-04-21T00:10:11.607Z,17.700001
2019-04-21T00:10:32.870Z,17.5
2019-04-21T00:10:56.180Z,18.5
2019-04-21T00:11:27.949Z,18.299999
2019-04-21T00:11:46.554Z,19.1
2019-04-21T00:12:07.100Z,19.6
2019-04-21T00:12:21.743Z,20.1
2019-04-21T00:12:40.091Z,19.200001
2019-04-21T00:13:01.678Z,19.200001
2019-04-21T00:13:17.532Z,20.5
2019-04-21T00:13:37.961Z,20.200001
2019-04-21T00:13:55.931Z,21.299999
2019-04-21T00:14:13.993Z,21.9
2019-04-21T00:14:30.141Z,20.700001
2019-04-21T00:14:49.256Z,20.799999
2019-04-21T00:15:09.558Z,19.799999
2019-04-21T00:15:27.533Z,20.799999
2019-04-21T00:15:44.113Z,20.1
2019-04-21T00:16:00.124Z,20.9
2019-04-21T00:16:17.045Z,21
2019-04-21T00:16:43.979Z,21.1
2019-04-21T00:17:00.442Z,21.299999
2019-04-21T00:17:16.114Z,22.799999
2019-04-21T00:17:31.987Z,21
2019-04-21T00:17:54.711Z,20.6
2019-04-21T00:18:10.864Z,20.1
2019-04-21T00:18:29.538Z,20.700001
2019-04-21T00:18:54.524Z,22.1
2019-04-21T00:19:12.558Z,22
2019-04-21T00:19:28.746Z,21
2019-04-21T00:19:44.573Z,21
2019-04-21T00:20:12.355Z,20.9
2019-04-21T00:20:30.814Z,20.700001
2019-04-21T00:20:46.538Z,21.299999
2019-04-21T00:21:10.892Z,20.6
2019-04-21T00:21:29.036Z,20.200001
2019-04-21T00:21:45.649Z,20.200001
2019-04-21T00:22:08.429Z,20.5
2019-04-21T00:22:30.004Z,22.799999
2019-04-21T00:22:47.567Z,21.700001
2019-04-21T00:23:12.929Z,21.4
2019-04-21T00:23:32.638Z,21.9
2019-04-21T00:23:47.973Z,20.700001
2019-04-21T00:24:04.750Z,21.6
2019-04-21T00:24:27.418Z,22.5
2019-04-21T00:24:44.208Z,21.9
2019-04-21T00:25:00.900Z,22.1
2019-04-21T00:25:23.362Z,21.700001
2019-04-21T00:25:38.240Z,20.9
2019-04-21T00:25:55.060Z,21.700001
2019-04-21T00:26:23.663Z,21.4
2019-04-21T00:26:36.186Z,20.6
2019-04-21T00:26:57.207Z,21.9
2019-04-21T00:27:19.898Z,21.4
2019-04-21T00:27:37.969Z,21.799999
2019-04-21T00:27:56.239Z,21.299999
2019-04-21T00:28:23.721Z,20.6
2019-04-21T00:28:40.615Z,21.4
2019-04-21T00:29:03.319Z,22
2019-04-21T00:29:16.196Z,21.700001
2019-04-21T00:29:37.656Z,20.6
2019-04-21T00:29:51.623Z,20.4
2019-04-21T00:30:15.497Z,21.6
2019-04-21T00:30:33.858Z,22.299999
2019-04-21T00:30:50.327Z,20.9
2019-04-21T00:31:04.163Z,21.299999
2019-04-21T00:31:24.238Z,20.9
2019-04-21T00:31:41.801Z,21
2019-04-21T00:32:01.367Z,21
2019-04-21T00:32:17.503Z,21
2019-04-21T00:32:35.084Z,21
2019-04-21T00:32:53.905Z,20.5
2019-04-21T00:33:08.931Z,20.1
2019-04-21T00:33:26.605Z,21
2019-04-21T00:33:43.288Z,21.6
2019-04-21T00:33:59.161Z,21.799999
2019-04-21T00:34:18.196Z,21.5
2019-04-21T00:34:40.969Z,20.4
2019-04-21T00:35:02.961Z,20.799999
2019-04-21T00:35:19.517Z,20.799999
2019-04-21T00:35:40.231Z,20.5
2019-04-21T00:36:00.558Z,21.1
2019-04-21T00:36:18.470Z,21.1
2019-04-21T00:36:42.639Z,20.200001
2019-04-21T00:36:59.510Z,20
2019-04-21T00:37:17.866Z,20.5
2019-04-21T00:37:47.732Z,20.6
2019-04-21T00:38:07.744Z,20.6
2019-04-21T00:38:24.322Z,20.9
2019-04-21T00:38:45.210Z,19.5
2019-04-21T00:39:14.181Z,20.700001
2019-04-21T00:39:28.482Z,20.200001
2019-04-21T00:39:48.628Z,20.1
2019-04-21T00:40:03.498Z,19.6
2019-04-21T00:40:21.875Z,20.299999
2019-04-21T00:40:41.249Z,20.6
2019-04-21T00:40:59.786Z,20.299999
2019-04-21T00:41:18.611Z,20.200001
2019-04-21T00:41:36.310Z,20.200001
2019-04-21T00:41:53.538Z,20.4
2019-04-21T00:42:13.745Z,19.200001
2019-04-21T00:42:28.934Z,19.299999
2019-04-21T00:42:48.221Z,19.4
2019-04-21T00:43:07.450Z,19.4
2019-04-21T00:43:27.826Z,20.700001
2019-04-21T00:43:44.591Z,21.200001
2019-04-21T00:44:00.524Z,20.700001
2019-04-21T00:44:17.193Z,19.9
2019-04-21T00:44:36.279Z,20.1
2019-04-21T00:45:01.660Z,19.9
2019-04-21T00:45:18.022Z,18.4
2019-04-21T00:45:33.574Z,19.4
2019-04-21T00:45:51.694Z,20.4
2019-04-21T00:46:10.678Z,19.6
2019-04-21T00:46:34.653Z,19.5
2019-04-21T00:46:51.158Z,18.799999
2019-04-21T00:47:10.789Z,18.6
2019-04-21T00:47:50.858Z,19.4
2019-04-21T00:47:57.536Z,20.9
2019-04-21T00:48:16.390Z,20
2019-04-21T00:48:34.189Z,19.5
2019-04-21T00:48:47.397Z,20.6
2019-04-21T00:49:05.442Z,21.200001
2019-04-21T00:49:26.754Z,21.299999
2019-04-21T00:49:49.251Z,21.6
2019-04-21T00:50:10.547Z,21.1
2019-04-21T00:50:31.226Z,20.1
2019-04-21T00:51:03.192Z,19.4
2019-04-21T00:51:16.043Z,19
2019-04-21T00:51:38.268Z,19.6
2019-04-21T00:51:53.199Z,20.1
2019-04-21T00:52:11.123Z,20.6
2019-04-21T00:52:37.776Z,19.1
2019-04-21T00:52:50.567Z,18.6
2019-04-21T00:52:59.184Z,19.799999
2019-04-21T00:53:28.536Z,20.5
2019-04-21T00:53:43.214Z,19.299999
2019-04-21T00:54:03.598Z,18.700001
2019-04-21T00:54:24.392Z,19.1
2019-04-21T00:54:41.396Z,19.200001
2019-04-21T00:55:07.488Z,20.700001
2019-04-21T00:55:26.517Z,21.299999
2019-04-21T00:55:38.354Z,20.9
2019-04-21T00:55:55.128Z,19.299999
2019-04-21T00:56:15.100Z,18.5
2019-04-21T00:56:33.344Z,19.799999
2019-04-21T00:56:55.964Z,20.799999
2019-04-21T00:57:10.405Z,19.5
2019-04-21T00:57:32.216Z,19.5
2019-04-21T00:57:51.175Z,19.700001
2019-04-21T00:58:10.314Z,19.200001
2019-04-21T00:58:27.889Z,19.5
2019-04-21T00:58:45.169Z,20.200001
2019-04-21T00:59:05.511Z,19.1
2019-04-21T00:59:25.460Z,19.799999
2019-04-21T00:59:44.961Z,20.299999
2019-04-21T00:59:58.971Z,20.299999
2019-04-21T01:00:21.923Z,19.9
2019-04-21T01:00:38.310Z,19.5
2019-04-21T01:00:56.916Z,20.6
2019-04-21T01:01:14.639Z,19.700001
2019-04-21T01:01:31.025Z,19.4
2019-04-21T01:01:53.686Z,19.6
2019-04-21T01:02:08.893Z,19.9
2019-04-21T01:02:37.998Z,20.200001
2019-04-21T01:03:08.249Z,20.6
2019-04-21T01:03:31.219Z,19.5
2019-04-21T01:03:51.597Z,21.5
2019-04-21T01:04:07.693Z,21.200001
2019-04-21T01:04:30.331Z,21.200001
2019-04-21T01:04:49.286Z,20.1
2019-04-21T01:05:04.509Z,20.1
2019-04-21T01:05:25.269Z,20.200001
2019-04-21T01:05:46.162Z,20.299999
2019-04-21T01:06:02.982Z,20.5
2019-04-21T01:06:22.203Z,20.6
2019-04-21T01:06:41.419Z,20.9
2019-04-21T01:06:54.229Z,20.700001
2019-04-21T01:07:19.173Z,20.200001
2019-04-21T01:07:35.673Z,20.4
2019-04-21T01:07:50.153Z,21
2019-04-21T01:08:12.751Z,21.4
2019-04-21T01:08:30.950Z,20.700001
2019-04-21T01:08:45.547Z,20.4
2019-04-21T01:09:07.459Z,20.4
2019-04-21T01:09:27.409Z,20.299999
2019-04-21T01:09:44.790Z,20.200001
2019-04-21T01:10:01.098Z,20.299999
2019-04-21T01:10:20.481Z,19.6
2019-04-21T01:10:37.987Z,20.9
2019-04-21T01:10:58.078Z,21.4
2019-04-21T01:11:23.508Z,20.6
2019-04-21T01:11:36.555Z,20.700001
2019-04-21T01:12:01.035Z,20
2019-04-21T01:12:25.230Z,19.9
2019-04-21T01:12:41.438Z,20.1
2019-04-21T01:13:02.395Z,21.299999
2019-04-21T01:13:21.219Z,21.200001
2019-04-21T01:13:40.870Z,22
2019-04-21T01:13:57.829Z,20.6
2019-04-21T01:14:19.757Z,21.200001
2019-04-21T01:14:40.560Z,20.799999
2019-04-21T01:15:02.673Z,20.700001
2019-04-21T01:15:18.156Z,19.1
2019-04-21T01:15:36.757Z,20.799999
2019-04-21T01:15:52.652Z,20.4
2019-04-21T01:16:13.608Z,20.1
2019-04-21T01:16:32.997Z,20.6
2019-04-21T01:16:51.201Z,21.1
2019-04-21T01:17:12.724Z,21.4
2019-04-21T01:17:27.205Z,21
2019-04-21T01:17:45.849Z,20.200001
2019-04-21T01:18:04.395Z,20.5
2019-04-21T01:18:26.019Z,21
2019-04-21T01:18:42.421Z,21.4
2019-04-21T01:19:00.321Z,20.700001
2019-04-21T01:19:20.769Z,20.700001
2019-04-21T01:19:39.625Z,20.4
2019-04-21T01:19:56.909Z,20
2019-04-21T01:20:12.797Z,21.200001
2019-04-21T01:22:50.287Z,21.9
2019-04-21T01:23:09.299Z,21.5
2019-04-21T01:23:28.319Z,21.299999
2019-04-21T01:23:47.264Z,21
2019-04-21T01:24:13.236Z,21.299999
2019-04-21T01:24:29.352Z,19.700001
2019-04-21T01:24:47.188Z,21
2019-04-21T01:25:11.705Z,21.200001
2019-04-21T01:25:29.976Z,21.4
2019-04-21T01:25:47.806Z,20.9
2019-04-21T01:26:14.405Z,19.6
2019-04-21T01:26:32.197Z,21.700001
2019-04-21T01:26:46.930Z,22.200001
2019-04-21T01:27:06.204Z,21.9
2019-04-21T01:27:24.907Z,21.700001
2019-04-21T01:28:03.409Z,20.5
2019-04-21T01:28:09.758Z,20.9
2019-04-21T01:28:28.778Z,20.1
2019-04-21T01:28:49.311Z,21.299999
2019-04-21T01:29:05.263Z,21.700001
2019-04-21T01:29:25.283Z,22
2019-04-21T01:29:45.670Z,21.5
2019-04-21T01:30:11.353Z,21.6
2019-04-21T01:30:28.223Z,22.299999
2019-04-21T01:30:44.676Z,21.299999
2019-04-21T01:31:02.212Z,22.4
2019-04-21T01:31:16.866Z,21.299999
2019-04-21T01:31:35.938Z,21.5
2019-04-21T01:32:04.929Z,22.6
2019-04-21T01:32:23.459Z,21.6
2019-04-21T01:32:41.994Z,21.299999
2019-04-21T01:32:58.875Z,21
2019-04-21T01:33:21.245Z,21.1
2019-04-21T01:33:37.832Z,21.299999
2019-04-21T01:33:56.005Z,20.6
2019-04-21T01:34:14.605Z,22.4
2019-04-21T01:34:32.810Z,21.299999
2019-04-21T01:34:50.840Z,20.4
2019-04-21T01:35:08.222Z,20.6
2019-04-21T01:35:25.264Z,21.9
2019-04-21T01:35:47.779Z,22.4
2019-04-21T01:36:03.624Z,21
2019-04-21T01:36:23.104Z,20.299999
2019-04-21T01:36:44.420Z,20.9
2019-04-21T01:36:58.300Z,21.9
2019-04-21T01:37:18.281Z,21
2019-04-21T01:37:49.065Z,20.799999
2019-04-21T01:38:01.696Z,22.5
2019-04-21T01:38:21.450Z,21.5
2019-04-21T01:38:39.601Z,22.1
2019-04-21T01:39:00.404Z,22.1
2019-04-21T01:39:19.417Z,21.4
2019-04-21T01:39:40.569Z,20.1
2019-04-21T01:39:59.900Z,21.299999
2019-04-21T01:40:22.496Z,21.799999
2019-04-21T01:40:33.451Z,21.9
2019-04-21T01:40:52.549Z,21.799999
2019-04-21T01:41:12.777Z,21.4
2019-04-21T01:41:31.173Z,23.5
2019-04-21T01:41:50.627Z,23.1
2019-04-21T01:42:08.660Z,22.5
2019-04-21T01:42:25.435Z,21.9
2019-04-21T01:42:45.040Z,21.700001
2019-04-21T01:43:07.262Z,21.700001
2019-04-21T01:43:23.163Z,23.1
2019-04-21T01:43:39.295Z,22.700001
2019-04-21T01:44:00.332Z,22.9
2019-04-21T01:44:29.441Z,21.1
2019-04-21T01:44:58.025Z,21.5
2019-04-21T01:45:14.458Z,21
2019-04-21T01:45:36.796Z,21
2019-04-21T01:45:53.351Z,21.799999
2019-04-21T01:46:13.753Z,21.6
2019-04-21T01:46:33.406Z,21.6
2019-04-21T01:46:51.687Z,21.700001
2019-04-21T01:47:09.960Z,22.700001
2019-04-21T01:47:24.126Z,22.4
2019-04-21T01:47:50.510Z,21.299999
2019-04-21T01:48:23.924Z,21
2019-04-21T01:48:42.642Z,22.299999
2019-04-21T01:49:01.407Z,22.299999
2019-04-21T01:49:19.035Z,22.4
2019-04-21T01:49:36.648Z,22.6
2019-04-21T01:49:55.462Z,21.5
2019-04-21T01:50:20.904Z,22.1
2019-04-21T01:50:40.766Z,22.299999
2019-04-21T01:50:55.119Z,22
2019-04-21T01:51:12.768Z,21.9
2019-04-21T01:51:39.491Z,22.200001
2019-04-21T01:52:08.631Z,21.9
2019-04-21T01:52:23.531Z,23.200001
2019-04-21T01:52:43.719Z,23.1
2019-04-21T01:52:55.708Z,23.4
2019-04-21T01:53:17.136Z,22.299999
2019-04-21T01:53:36.259Z,21.5
2019-04-21T01:53:54.678Z,21.4
2019-04-21T01:54:14.293Z,22.1
2019-04-21T01:54:34.954Z,21.9
2019-04-21T01:54:47.905Z,21.799999
2019-04-21T01:55:12.167Z,21.4
2019-04-21T01:55:28.730Z,22.299999
2019-04-21T01:55:48.021Z,22.5
2019-04-21T01:56:07.580Z,22.1
2019-04-21T01:56:23.656Z,21.700001
2019-04-21T01:56:44.308Z,21.9
2019-04-21T01:57:01.481Z,21.799999
2019-04-21T01:57:17.178Z,22.299999
2019-04-21T01:57:37.191Z,23.200001
2019-04-21T01:57:57.369Z,22.4
2019-04-21T01:58:10.703Z,23.200001
2019-04-21T01:58:28.686Z,22.299999
2019-04-21T01:58:48.063Z,21.799999
2019-04-21T01:59:03.351Z,22.9
2019-04-21T01:59:30.312Z,22.5
2019-04-21T01:59:45.600Z,22.200001
2019-04-21T02:00:04.377Z,22.5
2019-04-21T02:00:32.504Z,23.700001
2019-04-21T02:00:48.127Z,23.200001
2019-04-21T02:01:04.363Z,22.799999
2019-04-21T02:01:33.151Z,21.9
2019-04-21T02:01:52.038Z,23.4
2019-04-21T02:02:10.237Z,23.9
2019-04-21T02:02:28.959Z,22.6
2019-04-21T02:02:43.118Z,22.200001
2019-04-21T02:03:06.128Z,22.4
2019-04-21T02:03:40.485Z,23.4
2019-04-21T02:03:55.396Z,22.9
2019-04-21T02:03:59.537Z,23.5
2019-04-21T02:04:29.072Z,23.799999
2019-04-21T02:04:47.168Z,23.200001
2019-04-21T02:05:02.956Z,22.200001
2019-04-21T02:05:25.699Z,21.299999
2019-04-21T02:05:43.767Z,22.5
2019-04-21T02:05:58.446Z,23.6
2019-04-21T02:06:16.959Z,23.4
2019-04-21T02:06:32.946Z,24.200001
2019-04-21T02:06:57.114Z,22.799999
2019-04-21T02:07:14.460Z,22.9
2019-04-21T02:07:32.445Z,23.200001
2019-04-21T02:07:48.971Z,23.799999
2019-04-21T02:08:04.670Z,23.6
2019-04-21T02:08:27.086Z,23.299999
2019-04-21T02:08:41.285Z,23
2019-04-21T02:09:03.194Z,21.9
2019-04-21T02:09:18.727Z,22.700001
2019-04-21T02:09:41.780Z,23.200001
2019-04-21T02:10:04.599Z,23.4
2019-04-21T02:10:26.477Z,23.1
2019-04-21T02:10:45.940Z,23
2019-04-21T02:11:04.993Z,23.299999
2019-04-21T02:11:22.912Z,23.700001
2019-04-21T02:11:43.041Z,23.1
2019-04-21T02:11:59.846Z,23.700001
2019-04-21T02:12:18.651Z,22.1
2019-04-21T02:12:37.700Z,22.6
2019-04-21T02:12:56.362Z,22.9
2019-04-21T02:13:11.596Z,23
2019-04-21T02:13:27.479Z,22.200001
2019-04-21T02:13:57.057Z,22.9
2019-04-21T02:14:09.730Z,22.4
2019-04-21T02:14:37.934Z,22.799999
2019-04-21T02:14:50.147Z,22.799999
2019-04-21T02:15:10.949Z,22.6
2019-04-21T02:15:29.276Z,22.5
2019-04-21T02:15:48.601Z,23.1
2019-04-21T02:16:06.385Z,22.5
2019-04-21T02:16:22.582Z,22.5
2019-04-21T02:16:40.284Z,22.5
2019-04-21T02:17:05.076Z,23.299999
2019-04-21T02:17:21.583Z,21.700001
2019-04-21T02:17:40.492Z,22.700001
2019-04-21T02:17:58.842Z,23
2019-04-21T02:18:16.815Z,22.799999
2019-04-21T02:18:33.186Z,22.9
2019-04-21T02:18:54.298Z,23
2019-04-21T02:19:12.425Z,23.1
2019-04-21T02:19:31.068Z,22.299999
2019-04-21T02:19:48.985Z,22.9
2019-04-21T02:20:06.410Z,22.799999
2019-04-21T02:20:21.380Z,21.700001
2019-04-21T02:20:40.873Z,22.299999
2019-04-21T02:20:57.858Z,22.799999
2019-04-21T02:21:21.368Z,23.9
2019-04-21T02:21:37.783Z,23.5
2019-04-21T02:21:58.988Z,23.6
2019-04-21T02:22:27.077Z,23.6
2019-04-21T02:22:57.217Z,23.700001
2019-04-21T02:23:45.493Z,23.200001
2019-04-21T02:24:03.572Z,23.5
2019-04-21T02:24:28.480Z,23.5
2019-04-21T02:24:41.852Z,23.700001
2019-04-21T02:25:00.824Z,24.6
2019-04-21T02:25:19.622Z,25
2019-04-21T02:25:38.232Z,24.1
2019-04-21T02:25:57.187Z,23.299999
2019-04-21T02:26:15.908Z,24.5
2019-04-21T02:26:33.346Z,24.200001
2019-04-21T02:26:52.559Z,24.1
2019-04-21T02:27:12.568Z,24.1
2019-04-21T02:27:29.423Z,23.9
2019-04-21T02:27:49.460Z,24.200001
2019-04-21T02:28:11.210Z,23.5
2019-04-21T02:28:34.968Z,23.6
2019-04-21T02:28:49.673Z,23.700001
2019-04-21T02:29:06.687Z,22.9
2019-04-21T02:29:26.524Z,22.6
2019-04-21T02:29:46.943Z,24.200001
2019-04-21T02:30:09.934Z,23.6
2019-04-21T02:31:13.502Z,24.299999
2019-04-21T02:31:26.328Z,26.299999
2019-04-21T02:31:44.101Z,25
2019-04-21T02:32:42.880Z,23.6
2019-04-21T02:33:08.355Z,22.700001
2019-04-21T02:33:45.503Z,24.299999
2019-04-21T02:34:12.877Z,25.4
2019-04-21T02:34:40.076Z,25.4
2019-04-21T02:34:59.496Z,25
2019-04-21T02:35:20.561Z,24.799999
2019-04-21T02:35:38.091Z,23.799999
2019-04-21T02:36:00.083Z,22.9
2019-04-21T02:36:22.472Z,22.6
2019-04-21T02:36:39.298Z,23.200001
2019-04-21T02:37:26.835Z,22.6
2019-04-21T02:37:36.477Z,24.6
2019-04-21T02:37:53.332Z,25.200001
2019-04-21T02:38:44.392Z,23.9
2019-04-21T02:39:17.824Z,23.6
2019-04-21T02:39:48.690Z,24.700001
2019-04-21T02:40:10.979Z,23.9
2019-04-21T02:40:20.722Z,25.6
2019-04-21T02:40:38.277Z,25.1
2019-04-21T02:40:49.320Z,24.6
2019-04-21T02:41:12.573Z,24.200001
2019-04-21T02:41:54.184Z,25.6
2019-04-21T02:42:07.625Z,25.200001
2019-04-21T02:42:37.431Z,25.700001
2019-04-21T02:42:55.449Z,26.1
2019-04-21T02:43:10.971Z,25.1
2019-04-21T02:43:24.602Z,25
2019-04-21T02:43:51.883Z,23
2019-04-21T02:44:07.950Z,24.4
2019-04-21T02:44:26.226Z,24.6
2019-04-21T02:45:22.677Z,25.5
2019-04-21T02:45:46.395Z,24.200001
2019-04-21T02:46:03.705Z,25.1
2019-04-21T02:46:22.075Z,24.799999
2019-04-21T02:46:41.838Z,23.799999
2019-04-21T02:46:52.788Z,24
2019-04-21T02:47:26.749Z,23.4
2019-04-21T02:47:53.172Z,25
2019-04-21T02:48:43.122Z,26.299999
2019-04-21T02:48:55.107Z,26.1
2019-04-21T02:49:21.768Z,24.700001
2019-04-21T02:49:44.712Z,24.200001
2019-04-21T02:50:09.291Z,26.5
2019-04-21T02:50:25.733Z,25.4
2019-04-21T02:50:57.202Z,24.5
2019-04-21T02:51:27.258Z,24.799999
2019-04-21T02:51:41.770Z,24.5
2019-04-21T02:52:19.820Z,24.4
2019-04-21T02:53:00.658Z,24.700001
2019-04-21T02:53:38.910Z,25.299999
2019-04-21T02:54:47.321Z,25.6
2019-04-21T02:54:53.169Z,25.6
2019-04-21T02:55:28.259Z,24.4
2019-04-21T02:55:50.638Z,24.299999
2019-04-21T02:56:16.543Z,25.700001
2019-04-21T02:56:33.564Z,25.9
2019-04-21T02:56:52.508Z,25
2019-04-21T02:57:49.248Z,24.1
2019-04-21T02:58:05.579Z,25.6
2019-04-21T02:58:34.168Z,25.200001
2019-04-21T02:59:04.944Z,25.9
2019-04-21T02:59:22.498Z,24.5
2019-04-21T02:59:41.577Z,24.9
2019-04-21T03:00:23.540Z,25
2019-04-21T03:00:34.356Z,25.5
2019-04-21T03:00:54.655Z,24.200001
2019-04-21T03:01:23.283Z,24.5
2019-04-21T03:01:39.877Z,24.5
2019-04-21T03:02:13.607Z,24.700001
2019-04-21T03:02:54.008Z,24.6
2019-04-21T03:03:27.416Z,25.4
2019-04-21T03:03:41.529Z,25.799999
2019-04-21T03:04:07.919Z,25.4
2019-04-21T03:04:27.823Z,24.5
2019-04-21T03:05:20.124Z,24.9
2019-04-21T03:05:27.699Z,24.700001
2019-04-21T03:05:58.066Z,24.5
2019-04-21T03:06:15.130Z,24.4
2019-04-21T03:06:39.166Z,25.6
2019-04-21T03:07:01.402Z,27.700001
2019-04-21T03:07:29.819Z,25.1
2019-04-21T03:07:54.689Z,25.200001
2019-04-21T03:08:14.060Z,24.4
2019-04-21T03:08:42.442Z,24.799999
2019-04-21T03:09:08.530Z,25.4
2019-04-21T03:09:57.307Z,25.6
2019-04-21T03:10:24.389Z,25.1
2019-04-21T03:10:34.554Z,26.200001
2019-04-21T03:10:43.035Z,25.4
2019-04-21T03:11:16.812Z,26.1
2019-04-21T03:11:34.177Z,24.9
2019-04-21T03:12:50.613Z,24.200001
2019-04-21T03:13:03.359Z,25.6
2019-04-21T03:13:21.380Z,26.6
2019-04-21T03:13:56.523Z,26
2019-04-21T03:14:15.710Z,25.200001
2019-04-21T03:14:45.897Z,24.4
2019-04-21T03:15:10.254Z,26.799999
2019-04-21T03:15:37.094Z,25.200001
2019-04-21T03:15:58.930Z,25.700001
2019-04-21T03:16:16.546Z,26.200001
2019-04-21T03:16:30.785Z,24.700001
2019-04-21T03:16:54.986Z,25.6
2019-04-21T03:17:04.904Z,25.200001
2019-04-21T03:18:03.554Z,24.6
2019-04-21T03:18:23.982Z,24.6
2019-04-21T03:18:39.349Z,24.700001
2019-04-21T03:18:56.340Z,25.6
2019-04-21T03:19:27.002Z,24.6
2019-04-21T03:19:57.902Z,25.9
2019-04-21T03:20:16.837Z,25.9
2019-04-21T03:20:33.180Z,26.299999
2019-04-21T03:20:58.711Z,25.6
2019-04-21T03:21:28.198Z,25.6
2019-04-21T03:21:47.963Z,26
2019-04-21T03:22:11.631Z,26.5
2019-04-21T03:22:41.868Z,25.6
2019-04-21T03:23:07.494Z,24.9
2019-04-21T03:23:35.991Z,26.1
2019-04-21T03:23:45.755Z,25.799999
2019-04-21T03:23:57.160Z,26.9
2019-04-21T03:24:17.156Z,26
2019-04-21T03:24:53.309Z,26.799999
2019-04-21T03:25:32.900Z,26.6
2019-04-21T03:26:00.526Z,26.200001
2019-04-21T03:26:19.218Z,27.1
2019-04-21T03:26:36.014Z,26.9
2019-04-21T03:26:58.808Z,25.700001
2019-04-21T03:27:16.932Z,26
2019-04-21T03:27:39.455Z,26.200001
2019-04-21T03:27:56.590Z,25.5
2019-04-21T03:28:29.505Z,26.4
2019-04-21T03:28:51.870Z,25.700001
2019-04-21T03:29:11.581Z,26.299999
2019-04-21T03:29:27.987Z,26.6
2019-04-21T03:29:44.277Z,24.700001
2019-04-21T03:30:25.634Z,25.799999
2019-04-21T03:30:41.823Z,25.6
2019-04-21T03:31:17.864Z,27.1
2019-04-21T03:31:17.866Z,26.6
2019-04-21T03:32:13.548Z,25.4
2019-04-21T03:33:07.938Z,26.4
2019-04-21T03:33:23.017Z,26.700001
2019-04-21T03:35:13.253Z,24.799999
2019-04-21T03:35:57.189Z,27.5
2019-04-21T03:36:56.221Z,28.1
2019-04-21T03:37:22.917Z,26.6
2019-04-21T03:38:02.704Z,26.799999
2019-04-21T03:38:18.633Z,26.4
2019-04-21T03:38:52.910Z,26.700001
2019-04-21T03:39:07.401Z,27.5
2019-04-21T03:39:36.359Z,27
2019-04-21T03:39:50.156Z,27.700001
2019-04-21T03:40:18.398Z,28.4
2019-04-21T03:40:46.789Z,25.5
2019-04-21T03:41:18.582Z,26.4
2019-04-21T03:41:28.590Z,26.1
2019-04-21T03:41:47.503Z,26.1
2019-04-21T03:42:06.845Z,26.5
2019-04-21T03:43:11.931Z,27.9
2019-04-21T03:43:19.864Z,28
2019-04-21T03:43:58.686Z,26.200001
2019-04-21T03:44:22.359Z,26.5
2019-04-21T03:44:51.860Z,26.1
2019-04-21T03:45:23.117Z,27.299999
2019-04-21T03:45:48.350Z,26.4
2019-04-21T03:46:05.643Z,26.4
2019-04-21T03:46:32.223Z,27.1
2019-04-21T03:46:55.356Z,28
2019-04-21T03:47:14.437Z,27
2019-04-21T03:47:42.863Z,28.200001
2019-04-21T03:48:07.213Z,27.5
2019-04-21T03:48:26.560Z,26.4
2019-04-21T03:49:02.013Z,26.5
2019-04-21T03:49:27.171Z,27.299999
2019-04-21T03:49:47.092Z,27.799999
2019-04-21T03:50:04.435Z,27
2019-04-21T03:50:19.990Z,27.5
2019-04-21T03:50:32.934Z,28.4
2019-04-21T03:50:54.554Z,27.799999
2019-04-21T03:51:35.542Z,28.299999
2019-04-21T03:51:54.770Z,27.5
2019-04-21T03:52:19.120Z,28.299999
2019-04-21T03:52:38.546Z,26.6
2019-04-21T03:52:53.033Z,26
2019-04-21T03:53:09.046Z,27
2019-04-21T03:53:45.726Z,27.700001
2019-04-21T03:54:15.278Z,28
2019-04-21T03:54:24.946Z,27.1
2019-04-21T03:54:53.019Z,27.299999
2019-04-21T03:55:11.690Z,28.5
2019-04-21T03:56:26.851Z,28.1
2019-04-21T03:56:58.654Z,26.799999
2019-04-21T03:57:08.558Z,26.9
2019-04-21T03:57:17.154Z,27.1
2019-04-21T03:58:04.080Z,27.4
2019-04-21T03:58:14.646Z,27.6
2019-04-21T03:58:46.196Z,29
2019-04-21T03:59:03.226Z,27.299999
2019-04-21T03:59:24.009Z,26.5
2019-04-21T03:59:54.757Z,27.700001
2019-04-21T04:00:20.561Z,26.6
2019-04-21T04:01:03.796Z,27.6
2019-04-21T04:01:21.378Z,27.200001
2019-04-21T04:01:46.483Z,27.6
2019-04-21T04:02:05.554Z,27.4
2019-04-21T04:02:22.631Z,27.9
2019-04-21T04:03:07.173Z,28.6
2019-04-21T04:03:23.331Z,27.200001
2019-04-21T04:03:41.572Z,26.5
2019-04-21T04:04:03.225Z,28.1
2019-04-21T04:04:33.870Z,27.4
2019-04-21T04:04:52.440Z,27.6
2019-04-21T04:05:19.474Z,26.700001
2019-04-21T04:06:24.315Z,26.9
2019-04-21T04:06:55.316Z,26.4
2019-04-21T04:07:10.478Z,26.9
2019-04-21T04:07:30.737Z,28.1
2019-04-21T04:08:07.337Z,27.6
2019-04-21T04:08:31.191Z,27.799999
2019-04-21T04:08:49.547Z,28.1
2019-04-21T04:09:09.003Z,27.1
2019-04-21T04:09:25.492Z,27.4
2019-04-21T04:10:02.076Z,26.799999
2019-04-21T04:10:21.831Z,28.4
2019-04-21T04:10:42.480Z,27.5
2019-04-21T04:11:02.493Z,26.9
2019-04-21T04:11:19.311Z,27.5
2019-04-21T04:11:37.477Z,27
2019-04-21T04:11:50.218Z,27.9
2019-04-21T04:12:25.940Z,26.4
2019-04-21T04:12:50.046Z,27.6
2019-04-21T04:13:13.366Z,27.700001
2019-04-21T04:13:36.506Z,28.200001
2019-04-21T04:13:55.264Z,27.4
2019-04-21T04:14:12.514Z,28.299999
2019-04-21T04:14:30.543Z,28.4
2019-04-21T04:14:43.777Z,28.299999
2019-04-21T04:15:00.316Z,28.700001
2019-04-21T04:15:30.638Z,27.5
2019-04-21T04:15:45.109Z,28.299999
2019-04-21T04:16:16.678Z,28.700001
2019-04-21T04:16:44.848Z,28.700001
2019-04-21T04:17:04.392Z,26.799999
2019-04-21T04:17:32.351Z,27.4
2019-04-21T04:17:53.746Z,27.799999
2019-04-21T04:18:16.177Z,27.9
2019-04-21T04:18:52.084Z,26.9
2019-04-21T04:19:05.200Z,27.200001
2019-04-21T04:19:32.622Z,27.9
2019-04-21T04:19:44.344Z,27.6
2019-04-21T04:20:11.450Z,29.700001
2019-04-21T04:20:27.694Z,28.6
2019-04-21T04:20:42.169Z,28.5
2019-04-21T04:21:12.110Z,27.799999
2019-04-21T04:21:26.734Z,27.6
2019-04-21T04:21:47.354Z,28.1
2019-04-21T04:22:03.554Z,28.4
2019-04-21T04:22:29.323Z,28.9
2019-04-21T04:22:47.919Z,28.1
2019-04-21T04:23:51.009Z,27.5
2019-04-21T04:24:21.396Z,28.799999
2019-04-21T04:24:57.360Z,28.1
2019-04-21T04:25:09.133Z,27.6
2019-04-21T04:25:24.979Z,29.1
2019-04-21T04:25:49.196Z,29.200001
2019-04-21T04:26:12.816Z,29.5
2019-04-21T04:26:31.249Z,29.700001
2019-04-21T04:26:45.157Z,29.6
2019-04-21T04:27:04.862Z,28.799999
2019-04-21T04:27:51.015Z,28.200001
2019-04-21T04:28:07.968Z,28.299999
2019-04-21T04:28:27.335Z,29.299999
2019-04-21T04:28:45.810Z,29.6
2019-04-21T04:29:03.231Z,29
2019-04-21T04:29:37.847Z,28.700001
2019-04-21T04:29:58.807Z,30.9
2019-04-21T04:30:21.362Z,30
2019-04-21T04:30:51.659Z,29.799999
2019-04-21T04:31:14.944Z,29.9
2019-04-21T04:31:42.496Z,27.6
2019-04-21T04:32:03.067Z,27.6
2019-04-21T04:32:28.286Z,28.1
2019-04-21T04:32:41.672Z,27.6
2019-04-21T04:33:07.627Z,28
2019-04-21T04:33:36.968Z,28.1
2019-04-21T04:33:54.907Z,28
2019-04-21T04:34:27.134Z,31.1
2019-04-21T04:35:03.063Z,29.200001
2019-04-21T04:35:20.943Z,29.299999
2019-04-21T04:35:52.092Z,28.5
2019-04-21T04:36:23.634Z,29.299999
2019-04-21T04:37:04.923Z,29.1
2019-04-21T04:38:10.676Z,28.1
2019-04-21T04:38:31.998Z,28.200001